createdAt,value
2022-11-07T00:00:23.245Z,92.14
2022-11-07T00:03:25.299Z,92.02
2022-11-07T00:06:27.311Z,92.15
2022-11-07T00:09:29.334Z,92.70
2022-11-07T00:12:31.402Z,93.23
2022-11-07T00:15:33.396Z,93.46
2022-11-07T00:18:36.279Z,93.56
2022-11-07T00:21:39.727Z,93.69
2022-11-07T00:24:42.073Z,93.71
2022-11-07T00:27:44.141Z,93.92
2022-11-07T00:30:46.155Z,94.00
2022-11-07T00:33:48.614Z,94.24
2022-11-07T00:36:50.927Z,94.54
2022-11-07T00:39:52.956Z,94.55
2022-11-07T00:42:54.871Z,94.90
2022-11-07T00:45:57.867Z,95.19
2022-11-07T00:48:59.892Z,95.05
2022-11-07T00:52:01.950Z,95.13
2022-11-07T00:55:04.673Z,95.01
2022-11-07T00:58:11.218Z,94.83
2022-11-07T01:01:20.221Z,94.75
2022-11-07T01:04:41.115Z,94.26
2022-11-07T01:07:43.092Z,94.04
2022-11-07T01:10:45.094Z,93.83
2022-11-07T01:13:47.042Z,93.65
2022-11-07T01:16:50.157Z,93.56
2022-11-07T01:19:52.118Z,93.58
2022-11-07T01:22:54.135Z,93.45
2022-11-07T01:25:56.153Z,93.43
2022-11-07T01:28:58.251Z,93.43
2022-11-07T01:32:00.260Z,93.39
2022-11-07T01:35:02.242Z,93.70
2022-11-07T01:38:04.765Z,93.91
2022-11-07T01:41:21.330Z,94.67
2022-11-07T01:44:23.213Z,95.32
2022-11-07T01:47:31.571Z,95.39
2022-11-07T01:50:33.570Z,95.14
2022-11-07T01:53:36.463Z,95.63
2022-11-07T01:56:42.096Z,95.95
2022-11-07T01:59:44.217Z,96.25
2022-11-07T02:02:49.541Z,95.82
2022-11-07T02:06:00.217Z,95.59
2022-11-07T02:09:02.312Z,95.29
2022-11-07T02:12:04.592Z,95.31
2022-11-07T02:15:09.444Z,95.38
2022-11-07T02:18:11.622Z,95.44
2022-11-07T02:21:19.296Z,95.67
2022-11-07T02:24:34.236Z,95.71
2022-11-07T02:27:37.608Z,95.83
2022-11-07T02:30:39.634Z,95.94
2022-11-07T02:33:42.120Z,96.02
2022-11-07T02:36:44.169Z,96.05
2022-11-07T02:39:46.354Z,96.13
2022-11-07T02:42:48.891Z,96.27
2022-11-07T02:45:51.807Z,96.33
2022-11-07T02:48:59.498Z,96.33
2022-11-07T02:52:01.856Z,96.47
2022-11-07T02:55:05.406Z,96.64
2022-11-07T02:58:07.610Z,96.73
2022-11-07T03:01:10.006Z,96.80
2022-11-07T03:04:12.015Z,96.86
2022-11-07T03:07:13.942Z,96.95
2022-11-07T03:10:17.753Z,97.06
2022-11-07T03:13:19.721Z,97.04
2022-11-07T03:16:21.694Z,97.07
2022-11-07T03:19:23.668Z,97.09
2022-11-07T03:22:25.733Z,97.57
2022-11-07T03:25:27.682Z,97.85
2022-11-07T03:28:29.835Z,97.89
2022-11-07T03:31:31.843Z,97.99
2022-11-07T03:34:33.919Z,97.95
2022-11-07T03:37:36.391Z,97.97
2022-11-07T03:40:39.093Z,97.97
2022-11-07T03:43:41.049Z,97.97
2022-11-07T03:46:43.160Z,97.85
2022-11-07T03:49:45.116Z,97.77
2022-11-07T03:52:48.076Z,97.73
2022-11-07T03:55:50.082Z,97.75
2022-11-07T03:58:52.039Z,97.86
2022-11-07T04:01:54.118Z,97.94
2022-11-07T04:04:56.156Z,98.15
2022-11-07T04:07:58.216Z,98.21
2022-11-07T04:11:00.261Z,98.08
2022-11-07T04:14:20.822Z,97.95
2022-11-07T04:17:22.935Z,97.86
2022-11-07T04:20:24.951Z,97.80
2022-11-07T04:23:26.928Z,97.86
2022-11-07T04:26:47.453Z,97.82
2022-11-07T04:29:49.438Z,97.73
2022-11-07T04:32:53.901Z,97.67
2022-11-07T04:35:55.888Z,97.62
2022-11-07T04:38:58.550Z,97.58
2022-11-07T04:42:00.495Z,97.43
2022-11-07T04:45:02.500Z,97.20
2022-11-07T04:48:05.948Z,96.85
2022-11-07T04:51:14.195Z,96.59
2022-11-07T04:54:16.588Z,96.45
2022-11-07T04:57:18.587Z,96.30
2022-11-07T05:00:21.548Z,96.27
2022-11-07T05:03:23.425Z,96.21
2022-11-07T05:06:25.704Z,96.25
2022-11-07T05:09:28.002Z,96.24
2022-11-07T05:12:29.948Z,96.24
2022-11-07T05:15:31.910Z,96.22
2022-11-07T05:18:33.942Z,96.11
2022-11-07T05:21:35.914Z,96.09
2022-11-07T05:24:38.126Z,96.08
2022-11-07T05:27:40.083Z,95.98
2022-11-07T05:30:44.088Z,96.03
2022-11-07T05:33:46.128Z,96.07
2022-11-07T05:36:48.297Z,95.93
2022-11-07T05:39:54.826Z,96.04
2022-11-07T05:43:01.705Z,96.05
2022-11-07T05:46:03.844Z,96.12
2022-11-07T05:49:06.018Z,96.17
2022-11-07T05:52:07.942Z,96.18
2022-11-07T05:55:09.911Z,96.22
2022-11-07T05:58:12.616Z,96.23
2022-11-07T06:01:14.625Z,96.24
2022-11-07T06:04:16.600Z,96.25
2022-11-07T06:07:18.572Z,96.21
2022-11-07T06:10:21.017Z,96.21
2022-11-07T06:13:23.314Z,96.12
2022-11-07T06:16:25.555Z,96.02
2022-11-07T06:19:27.561Z,95.81
2022-11-07T06:22:30.319Z,95.66
2022-11-07T06:25:33.037Z,95.59
2022-11-07T06:28:35.314Z,95.44
2022-11-07T06:31:37.386Z,95.44
2022-11-07T06:34:39.460Z,95.34
2022-11-07T06:37:41.458Z,94.80
2022-11-07T06:40:44.563Z,94.27
2022-11-07T06:43:46.637Z,94.10
2022-11-07T06:46:48.673Z,93.90
2022-11-07T06:49:50.721Z,93.57
2022-11-07T06:52:52.734Z,93.25
2022-11-07T06:55:55.727Z,93.16
2022-11-07T06:58:57.802Z,93.20
2022-11-07T07:02:00.089Z,93.57
2022-11-07T07:05:02.116Z,93.88
2022-11-07T07:08:05.937Z,93.92
2022-11-07T07:11:10.635Z,93.80
2022-11-07T07:14:12.769Z,93.57
2022-11-07T07:17:14.731Z,93.56
2022-11-07T07:20:16.850Z,93.51
2022-11-07T07:23:20.189Z,93.79
2022-11-07T07:26:22.448Z,94.29
2022-11-07T07:29:25.215Z,94.82
2022-11-07T07:32:27.240Z,94.93
2022-11-07T07:35:29.280Z,95.13
2022-11-07T07:38:31.556Z,95.13
2022-11-07T07:41:38.992Z,94.77
2022-11-07T07:44:42.048Z,94.63
2022-11-07T07:47:44.116Z,94.67
2022-11-07T07:50:52.452Z,94.48
2022-11-07T07:53:54.619Z,93.88
2022-11-07T07:56:56.594Z,93.61
2022-11-07T07:59:58.801Z,93.31
2022-11-07T08:03:11.901Z,92.94
2022-11-07T08:06:13.806Z,92.59
2022-11-07T08:09:15.755Z,91.94
2022-11-07T08:12:17.747Z,91.31
2022-11-07T08:15:20.549Z,91.00
2022-11-07T08:18:24.297Z,90.40
2022-11-07T08:21:26.297Z,89.79
2022-11-07T08:24:28.520Z,89.19
2022-11-07T08:27:30.629Z,87.71
2022-11-07T08:30:32.864Z,87.16
2022-11-07T08:33:35.515Z,86.40
2022-11-07T08:36:39.905Z,86.24
2022-11-07T08:39:41.907Z,86.75
2022-11-07T08:42:43.944Z,86.74
2022-11-07T08:45:47.820Z,87.48
2022-11-07T08:48:50.159Z,86.70
2022-11-07T08:51:52.238Z,85.32
2022-11-07T08:54:54.330Z,85.11
2022-11-07T08:58:01.169Z,84.68
2022-11-07T09:01:08.121Z,85.00
2022-11-07T09:04:10.363Z,84.50
2022-11-07T09:07:12.383Z,83.20
2022-11-07T09:10:14.670Z,82.74
2022-11-07T09:13:17.208Z,83.13
2022-11-07T09:16:20.390Z,82.06
2022-11-07T09:19:22.458Z,81.00
2022-11-07T09:22:24.547Z,80.28
2022-11-07T09:25:27.092Z,79.19
2022-11-07T09:28:29.796Z,79.11
2022-11-07T09:31:31.781Z,79.07
2022-11-07T09:34:33.747Z,79.18
2022-11-07T09:37:39.325Z,79.55
2022-11-07T09:41:00.539Z,79.48
2022-11-07T09:44:28.067Z,78.49
2022-11-07T09:47:37.432Z,76.50
2022-11-07T09:50:43.131Z,74.22
2022-11-07T09:53:51.278Z,72.06
2022-11-07T09:56:55.835Z,70.12
2022-11-07T10:00:02.232Z,66.69
2022-11-07T10:03:08.988Z,64.66
2022-11-07T10:06:25.134Z,62.31
2022-11-07T10:09:49.676Z,59.05
2022-11-07T10:13:06.730Z,56.24
2022-11-07T10:16:17.785Z,52.10
2022-11-07T10:19:43.948Z,53.18
2022-11-07T10:22:58.061Z,54.08
2022-11-07T10:26:08.181Z,58.45
2022-11-07T10:29:21.403Z,57.73
2022-11-07T10:32:29.319Z,57.93
2022-11-07T10:35:34.070Z,60.49
2022-11-07T10:38:41.438Z,60.55
2022-11-07T10:42:14.440Z,59.91
2022-11-07T10:45:17.795Z,58.65
2022-11-07T10:48:19.929Z,59.19
2022-11-07T10:51:42.607Z,56.63
2022-11-07T10:54:47.526Z,53.74
2022-11-07T10:58:12.466Z,51.96
2022-11-07T11:01:22.990Z,49.44
2022-11-07T11:04:30.495Z,49.10
2022-11-07T11:07:38.802Z,49.27
2022-11-07T11:10:42.258Z,49.41
2022-11-07T11:13:44.332Z,47.99
2022-11-07T11:16:50.016Z,46.92
2022-11-07T11:19:53.840Z,50.16
2022-11-07T11:22:55.931Z,47.32
2022-11-07T11:26:14.342Z,46.99
2022-11-07T11:29:50.527Z,47.76
2022-11-07T11:33:06.783Z,47.18
2022-11-07T11:36:19.589Z,45.21
2022-11-07T11:39:33.122Z,44.44
2022-11-07T11:42:53.995Z,46.11
2022-11-07T11:46:02.493Z,47.12
2022-11-07T11:49:36.651Z,47.62
2022-11-07T11:52:39.027Z,47.42
2022-11-07T11:55:52.174Z,47.34
2022-11-07T11:59:09.731Z,47.00
2022-11-07T12:02:27.022Z,48.54
2022-11-07T12:06:04.848Z,50.11
2022-11-07T12:09:17.168Z,51.89
2022-11-07T12:12:38.185Z,52.58
2022-11-07T12:16:17.648Z,53.46
2022-11-07T12:19:46.241Z,55.19
2022-11-07T12:23:16.453Z,55.98
2022-11-07T12:26:24.278Z,56.57
2022-11-07T12:29:48.214Z,57.56
2022-11-07T12:32:50.128Z,58.31
2022-11-07T12:36:00.619Z,58.61
2022-11-07T12:39:17.916Z,57.47
2022-11-07T12:42:34.684Z,57.53
2022-11-07T12:45:48.807Z,56.34
2022-11-07T12:49:15.512Z,54.59
2022-11-07T12:53:06.021Z,52.43
2022-11-07T12:56:20.180Z,50.35
2022-11-07T12:59:29.793Z,51.59
2022-11-07T13:02:44.175Z,50.91
2022-11-07T13:06:19.140Z,51.39
2022-11-07T13:09:26.833Z,53.55
2022-11-07T13:12:36.477Z,53.56
2022-11-07T13:16:08.961Z,53.58
2022-11-07T13:19:21.010Z,55.06
2022-11-07T13:22:32.509Z,55.44
2022-11-07T13:25:34.989Z,55.78
2022-11-07T13:28:44.449Z,55.71
2022-11-07T13:31:46.502Z,56.71
2022-11-07T13:34:58.026Z,57.15
2022-11-07T13:38:12.043Z,57.23
2022-11-07T13:41:16.026Z,57.36
2022-11-07T13:44:29.510Z,57.74
2022-11-07T13:47:39.384Z,58.52
2022-11-07T13:50:46.649Z,58.42
2022-11-07T13:53:48.566Z,58.85
2022-11-07T13:56:59.714Z,59.17
2022-11-07T14:00:14.528Z,59.28
2022-11-07T14:03:29.519Z,60.01
2022-11-07T14:06:32.552Z,60.25
2022-11-07T14:09:34.807Z,61.50
2022-11-07T14:12:40.383Z,61.58
2022-11-07T14:15:54.020Z,62.10
2022-11-07T14:19:04.513Z,62.58
2022-11-07T14:22:08.756Z,62.83
2022-11-07T14:25:35.799Z,63.28
2022-11-07T14:28:39.975Z,63.74
2022-11-07T14:31:42.219Z,63.33
2022-11-07T14:34:46.451Z,63.65
2022-11-07T14:37:48.640Z,63.63
2022-11-07T14:40:53.182Z,63.91
2022-11-07T14:44:03.878Z,64.21
2022-11-07T14:47:08.432Z,64.63
2022-11-07T14:50:16.011Z,65.08
2022-11-07T14:53:22.397Z,65.21
2022-11-07T14:56:34.658Z,65.36
2022-11-07T14:59:38.057Z,65.96
2022-11-07T15:02:40.432Z,66.71
2022-11-07T15:05:42.388Z,67.12
2022-11-07T15:08:56.862Z,67.56
2022-11-07T15:12:00.954Z,68.28
2022-11-07T15:15:17.141Z,69.13
2022-11-07T15:18:26.802Z,69.58
2022-11-07T15:21:32.943Z,71.16
2022-11-07T15:24:45.218Z,72.48
2022-11-07T15:27:47.235Z,72.83
2022-11-07T15:30:51.994Z,72.98
2022-11-07T15:33:57.332Z,74.56
2022-11-07T15:36:59.262Z,75.07
2022-11-07T15:40:13.152Z,75.26
2022-11-07T15:43:15.483Z,75.92
2022-11-07T15:46:39.335Z,76.90
2022-11-07T15:49:41.402Z,78.22
2022-11-07T15:52:44.574Z,78.56
2022-11-07T15:55:47.313Z,79.31
2022-11-07T15:58:50.683Z,79.54
2022-11-07T16:01:52.715Z,79.49
2022-11-07T16:04:54.840Z,79.87
2022-11-07T16:07:58.402Z,79.94
2022-11-07T16:11:02.678Z,80.49
2022-11-07T16:14:36.399Z,81.17
2022-11-07T16:17:27.240Z,81.44
2022-11-07T16:20:33.633Z,81.95
2022-11-07T16:23:37.360Z,82.44
2022-11-07T16:26:40.475Z,83.00
2022-11-07T16:29:44.391Z,83.66
2022-11-07T16:32:47.227Z,83.96
2022-11-07T16:35:51.933Z,84.15
2022-11-07T16:38:55.549Z,84.60
2022-11-07T16:41:58.693Z,85.31
2022-11-07T16:45:02.544Z,85.91
2022-11-07T16:48:05.962Z,85.86
2022-11-07T16:51:15.606Z,86.18
2022-11-07T16:54:18.330Z,86.45
2022-11-07T16:57:21.234Z,86.59
2022-11-07T17:00:24.977Z,87.12
2022-11-07T17:03:29.589Z,87.18
2022-11-07T17:06:35.030Z,86.83
2022-11-07T17:09:38.807Z,86.95
2022-11-07T17:12:41.844Z,87.11
2022-11-07T17:15:47.472Z,87.39
2022-11-07T17:18:51.578Z,87.69
2022-11-07T17:21:54.339Z,87.92
2022-11-07T17:24:59.301Z,88.21
2022-11-07T17:28:02.127Z,88.55
2022-11-07T17:31:05.260Z,88.69
2022-11-07T17:34:08.856Z,88.82
2022-11-07T17:37:15.711Z,88.76
2022-11-07T17:40:26.759Z,88.79
2022-11-07T17:43:29.894Z,89.28
2022-11-07T17:46:34.656Z,89.60
2022-11-07T17:49:37.704Z,89.81
2022-11-07T17:52:41.876Z,90.03
2022-11-07T17:55:45.044Z,90.37
2022-11-07T17:58:52.631Z,90.69
2022-11-07T18:01:55.441Z,90.76
2022-11-07T18:04:58.406Z,91.37
2022-11-07T18:08:01.750Z,91.62
2022-11-07T18:11:04.951Z,92.11
2022-11-07T18:14:08.256Z,92.18
2022-11-07T18:17:11.430Z,92.49
2022-11-07T18:20:17.390Z,92.43
2022-11-07T18:23:20.505Z,92.18
2022-11-07T18:26:32.992Z,92.20
2022-11-07T18:29:36.782Z,92.32
2022-11-07T18:32:39.998Z,92.43
2022-11-07T18:35:43.059Z,92.76
2022-11-07T18:38:47.728Z,93.29
2022-11-07T18:41:54.599Z,94.03
2022-11-07T18:44:57.782Z,93.43
2022-11-07T18:48:02.049Z,93.05
2022-11-07T18:51:10.095Z,92.01
2022-11-07T18:54:14.354Z,91.50
2022-11-07T18:57:17.475Z,91.67
2022-11-07T19:00:20.793Z,91.92
2022-11-07T19:03:23.510Z,91.52
2022-11-07T19:06:33.241Z,91.26
2022-11-07T19:09:37.530Z,92.03
2022-11-07T19:12:41.222Z,91.97
2022-11-07T19:15:45.576Z,92.40
2022-11-07T19:18:50.395Z,92.08
2022-11-07T19:21:53.122Z,92.80
2022-11-07T19:24:56.117Z,92.99
2022-11-07T19:27:59.495Z,93.62
2022-11-07T19:31:04.362Z,93.59
2022-11-07T19:34:08.766Z,92.78
2022-11-07T19:37:12.520Z,92.79
2022-11-07T19:40:15.706Z,92.04
2022-11-07T19:43:19.797Z,92.07
2022-11-07T19:46:24.054Z,92.04
2022-11-07T19:49:26.745Z,92.41
2022-11-07T19:52:29.830Z,92.77
2022-11-07T19:55:33.750Z,93.00
2022-11-07T19:58:40.981Z,92.99
2022-11-07T20:02:04.134Z,93.14
2022-11-07T20:05:09.900Z,93.21
2022-11-07T20:08:14.230Z,93.14
2022-11-07T20:11:23.153Z,93.06
2022-11-07T20:14:28.668Z,93.31
2022-11-07T20:17:32.547Z,93.65
2022-11-07T20:20:35.190Z,94.29
2022-11-07T20:23:37.900Z,96.07
2022-11-07T20:26:45.238Z,96.75
2022-11-07T20:29:49.850Z,96.24
2022-11-07T20:32:53.020Z,95.91
2022-11-07T20:36:05.014Z,95.42
2022-11-07T20:39:08.847Z,95.38
2022-11-07T20:42:11.953Z,95.66
2022-11-07T20:45:14.814Z,95.86
2022-11-07T20:48:18.862Z,95.96
2022-11-07T20:51:26.206Z,96.23
2022-11-07T20:54:30.362Z,96.16
2022-11-07T20:57:34.609Z,96.34
2022-11-07T21:00:40.459Z,96.79
2022-11-07T21:03:43.579Z,96.83
2022-11-07T21:06:46.830Z,96.47
2022-11-07T21:09:49.977Z,96.50
2022-11-07T21:12:52.825Z,96.61
2022-11-07T21:15:55.821Z,96.69
2022-11-07T21:18:58.539Z,96.69
2022-11-07T21:22:01.123Z,96.71
2022-11-07T21:25:07.217Z,96.69
2022-11-07T21:28:13.153Z,96.35
2022-11-07T21:31:20.097Z,96.15
2022-11-07T21:34:22.079Z,96.67
2022-11-07T21:37:24.287Z,96.72
2022-11-07T21:40:27.231Z,96.70
2022-11-07T21:43:29.291Z,97.00
2022-11-07T21:46:34.417Z,97.30
2022-11-07T21:49:36.375Z,97.20
2022-11-07T21:52:38.330Z,97.70
2022-11-07T21:55:40.343Z,97.97
2022-11-07T21:58:42.831Z,98.12
2022-11-07T22:01:46.552Z,98.14
2022-11-07T22:04:48.607Z,98.29
2022-11-07T22:07:51.383Z,98.24
2022-11-07T22:10:53.544Z,97.99
2022-11-07T22:13:56.092Z,98.11
2022-11-07T22:16:58.057Z,97.98
2022-11-07T22:20:00.264Z,97.97
2022-11-07T22:23:02.242Z,97.93
2022-11-07T22:26:15.221Z,97.99
2022-11-07T22:29:17.143Z,98.17
2022-11-07T22:32:19.203Z,98.37
2022-11-07T22:35:21.230Z,98.53
2022-11-07T22:38:23.910Z,98.60
2022-11-07T22:41:27.606Z,98.31
2022-11-07T22:44:29.599Z,98.05
2022-11-07T22:47:31.605Z,97.83
2022-11-07T22:50:34.428Z,97.77
2022-11-07T22:53:38.208Z,97.53
2022-11-07T22:56:41.150Z,97.44
2022-11-07T22:59:43.139Z,97.21
2022-11-07T23:02:45.207Z,97.10
2022-11-07T23:05:47.208Z,96.70
2022-11-07T23:08:49.505Z,96.84
2022-11-07T23:11:51.529Z,96.93
2022-11-07T23:14:56.854Z,96.86
2022-11-07T23:17:59.091Z,96.71
2022-11-07T23:21:10.453Z,97.12
2022-11-07T23:24:12.800Z,97.36
2022-11-07T23:27:15.964Z,97.66
2022-11-07T23:30:20.359Z,97.91
2022-11-07T23:33:23.199Z,98.02
2022-11-07T23:36:26.138Z,97.97
2022-11-07T23:39:30.100Z,98.11
2022-11-07T23:42:32.806Z,98.08
2022-11-07T23:45:53.812Z,98.25
2022-11-07T23:49:15.011Z,98.25
2022-11-07T23:52:18.546Z,98.17
2022-11-07T23:55:39.992Z,98.33
2022-11-07T23:59:21.143Z,98.48
